Kazhim, Russia
Current Conditions -  °F | °C
As of 3:30 PM on Saturday 25 Oct 2014 (Local Time) from UUYY Reporting Station
Snow Showers Snow Showers  
Wind Chill: 15°   Ceiling: 1600
Heat Index: 21°   Visibility: 4mi
Dew Point: 14°   Wind: 4mph
Humidity: 74%   Direction: 320°NW
Pressure: 30.42"   Gusts: NA
Location:  60.33°N, 51.55°E
Report Text: UUYY 251230Z 32002MPS 6000 -SHSN BKN016CB OVC066 M06/M10 Q1030 TEMPO 1000 SHSN 0182//49 RMK QFE763/1018
Loading
Personal Weather Stations






























Interactive Weather Map
Tropical Storm Tracking
New forecast layout! Learn more

10-Day Weather Forecast

Advertisements
Track Severe Weather on mobile